O'Fallon, Missouri
Current Conditions -  °F | °C
As of 11:54 AM on Sunday 21 Dec 2014 (Local Time) from KSUS Reporting Station
Overcast Overcast  
Wind Chill: 38°   Ceiling: 3700
Heat Index: 43°   Visibility: 10mi
Dew Point: 34°   Wind: 9mph
Humidity: 71%   Direction: 130°SE
Pressure: 30.11"   Gusts: NA
Location:  38.78°N, 90.71°W
Report Text: KSUS 211754Z 13008KT 10SM OVC037 06/01 A3011 RMK AO2 PRESFR SLP199 T00610011 10061 20044 58025
Loading
Personal Weather Stations






























Interactive Weather Map New forecast layout! Learn more

10-Day Weather Forecast

Advertisements
Track Severe Weather on mobile